Schneifelwetter: Wetterstation Hallschlag, 537 m . NN
Wetterdaten: Freitag, 19.03.2010
Datum Zeit Temp. A. Feuchte A. Luftdruck Regen Wind Richtung Richtung Sonnenschein Helligkeit T Regen Taupunkt Windchill
19.03.2010 00:01 7,2 C 58 % 1016 hPa 0,0 l/m 21,7 km/h (4 Bft) SW45 220 0 min 0 lux 0,00 min -0,5 C -0,9 C
19.03.2010 00:16 7,5 C 58 % 1016 hPa 0,0 l/m 22,5 km/h (4 Bft) SW45 230 0 min 0 lux 0,00 min -0,2 C -0,8 C
19.03.2010 00:31 7,6 C 58 % 1016 hPa 0,0 l/m 23,1 km/h (4 Bft) SW45 230 0 min 0 lux 0,00 min -0,1 C -0,9 C
19.03.2010 00:46 7,6 C 58 % 1016 hPa 0,0 l/m 22,1 km/h (4 Bft) W-SW22.5 240 0 min 0 lux 0,00 min -0,1 C -0,5 C
19.03.2010 01:01 7,6 C 58 % 1016 hPa 0,0 l/m 24,3 km/h (4 Bft) SW45 235 0 min 0 lux 0,00 min -0,1 C -1,2 C
19.03.2010 01:16 7,6 C 58 % 1016 hPa 0,0 l/m 19,4 km/h (3 Bft) SW22.5 235 0 min 0 lux 0,00 min -0,1 C 0,4 C
19.03.2010 01:31 7,3 C 59 % 1016 hPa 0,0 l/m 20,1 km/h (4 Bft) W-SW22.5 250 0 min 0 lux 0,00 min -0,2 C -0,2 C
19.03.2010 01:46 7,1 C 60 % 1017 hPa 0,0 l/m 17,5 km/h (3 Bft) W-SW22.5 245 0 min 0 lux 0,00 min -0,1 C 0,5 C
19.03.2010 02:01 6,5 C 61 % 1017 hPa 0,0 l/m 18,6 km/h (3 Bft) W-SW22.5 250 0 min 0 lux 0,00 min -0,5 C -0,7 C
19.03.2010 02:16 6,0 C 62 % 1017 hPa 0,0 l/m 12,0 km/h (2 Bft) W-SW 250 0 min 0 lux 0,00 min -0,7 C 1,9 C
19.03.2010 02:31 5,4 C 63 % 1017 hPa 0,0 l/m 8,9 km/h (2 Bft) W-SW 240 0 min 0 lux 0,00 min -1,1 C 3,3 C
19.03.2010 02:46 4,9 C 64 % 1016 hPa 0,0 l/m 9,8 km/h (2 Bft) W-SW 240 0 min 0 lux 0,00 min -1,3 C 2,1 C
19.03.2010 03:01 4,7 C 65 % 1016 hPa 0,0 l/m 10,0 km/h (2 Bft) W-SW 245 0 min 0 lux 0,00 min -1,3 C 1,7 C
19.03.2010 03:16 4,9 C 67 % 1016 hPa 0,0 l/m 12,1 km/h (2 Bft) W-SW 250 0 min 0 lux 0,00 min -0,7 C 0,6 C
19.03.2010 03:31 5,4 C 66 % 1016 hPa 0,0 l/m 15,5 km/h (3 Bft) W-SW22.5 250 0 min 0 lux 0,00 min -0,4 C -0,7 C
19.03.2010 03:46 6,0 C 66 % 1016 hPa 0,0 l/m 17,4 km/h (3 Bft) W-SW22.5 245 0 min 0 lux 0,00 min 0,1 C -0,8 C
19.03.2010 04:01 6,3 C 66 % 1016 hPa 0,0 l/m 21,0 km/h (4 Bft) W-SW45 240 0 min 0 lux 0,00 min 0,4 C -1,9 C
19.03.2010 04:16 6,5 C 65 % 1016 hPa 0,0 l/m 22,7 km/h (4 Bft) W-SW22.5 240 0 min 0 lux 0,00 min 0,4 C -2,2 C
19.03.2010 04:31 6,4 C 66 % 1016 hPa 0,0 l/m 22,7 km/h (4 Bft) SW45 235 0 min 0 lux 0,00 min 0,5 C -2,3 C
19.03.2010 04:46 6,0 C 67 % 1016 hPa 0,0 l/m 15,8 km/h (3 Bft) W-SW22.5 250 0 min 0 lux 0,00 min 0,3 C -0,1 C
19.03.2010 05:01 6,4 C 68 % 1016 hPa 0,0 l/m 21,9 km/h (4 Bft) SW22.5 225 0 min 0 lux 0,00 min 0,9 C -2,0 C
19.03.2010 05:16 6,9 C 67 % 1016 hPa 0,0 l/m 22,6 km/h (4 Bft) SW22.5 220 0 min 0 lux 0,00 min 1,2 C -1,6 C
19.03.2010 05:31 7,0 C 67 % 1016 hPa 0,0 l/m 19,6 km/h (3 Bft) W-SW45 240 0 min 0 lux 0,00 min 1,3 C -0,4 C
19.03.2010 05:45 7,0 C 68 % 1017 hPa 0,0 l/m 21,3 km/h (4 Bft) W-SW22.5 250 0 min 0 lux 0,00 min 1,5 C -1,1 C
19.03.2010 06:00 6,8 C 69 % 1016 hPa 0,0 l/m 21,6 km/h (4 Bft) W-SW22.5 245 0 min 0 lux 0,00 min 1,5 C -1,4 C
19.03.2010 06:15 6,8 C 69 % 1016 hPa 0,0 l/m 26,1 km/h (4 Bft) SW45 235 0 min 0 lux 0,00 min 1,5 C -2,8 C
19.03.2010 06:30 7,0 C 69 % 1016 hPa 0,0 l/m 30,0 km/h (5 Bft) SW45 230 0 min 73 lux 0,00 min 1,7 C -3,6 C
19.03.2010 06:45 7,2 C 70 % 1016 hPa 0,0 l/m 30,6 km/h (5 Bft) W-SW22.5 240 0 min 320 lux 0,00 min 2,1 C -3,4 C
19.03.2010 07:00 7,3 C 70 % 1016 hPa 0,0 l/m 37,5 km/h (5 Bft) SW22.5 235 0 min 953 lux 0,00 min 2,2 C -4,7 C
19.03.2010 07:15 7,4 C 71 % 1016 hPa 0,0 l/m 33,3 km/h (5 Bft) SW45 230 0 min 1,45 klux 0,00 min 2,5 C -3,7 C
19.03.2010 07:30 7,6 C 72 % 1017 hPa 0,0 l/m 37,4 km/h (5 Bft) W-SW45 240 0 min 4,64 klux 0,00 min 2,9 C -4,2 C
19.03.2010 07:45 7,7 C 73 % 1017 hPa 0,0 l/m 33,9 km/h (5 Bft) W-SW67.5 245 0 min 15,6 klux 0,00 min 3,2 C -3,4 C
19.03.2010 08:00 8,2 C 73 % 1017 hPa 0,0 l/m 48,0 km/h (6 Bft) W-SW22.5 240 0 min 20,8 klux 0,00 min 3,7 C -4,9 C
19.03.2010 08:16 8,7 C 73 % 1017 hPa 0,0 l/m 35,6 km/h (5 Bft) SW45 230 0 min 25,7 klux 0,00 min 4,1 C -2,3 C
19.03.2010 08:31 9,1 C 72 % 1017 hPa 0,0 l/m 43,3 km/h (6 Bft) W-SW45 240 15 min 31,0 klux 0,00 min 4,3 C -2,9 C
19.03.2010 08:46 9,6 C 72 % 1017 hPa 0,0 l/m 49,9 km/h (6 Bft) W-SW45 245 15 min 37,2 klux 0,00 min 4,8 C -2,9 C
19.03.2010 09:01 10,0 C 71 % 1017 hPa 0,0 l/m 41,2 km/h (6 Bft) SW45 235 15 min 39,6 klux 0,00 min 5,0 C -1,3 C
19.03.2010 09:16 10,8 C 71 % 1017 hPa 0,0 l/m 41,1 km/h (6 Bft) W-SW22.5 245 15 min 57,3 klux 0,00 min 5,8 C -0,1 C
19.03.2010 09:30 11,3 C 69 % 1017 hPa 0,0 l/m 45,0 km/h (6 Bft) W-SW45 250 14 min 43,6 klux 0,00 min 5,8 C 0,2 C
19.03.2010 09:46 10,9 C 69 % 1017 hPa 0,0 l/m 44,1 km/h (6 Bft) W-SW45 250 0 min 21,2 klux 0,00 min 5,4 C -0,3 C
19.03.2010 10:01 11,1 C 70 % 1017 hPa 0,0 l/m 40,1 km/h (6 Bft) W-SW22.5 245 15 min 31,9 klux 0,00 min 5,8 C 0,5 C
19.03.2010 10:16 11,6 C 70 % 1017 hPa 0,0 l/m 43,8 km/h (6 Bft) W-SW45 245 15 min 81,0 klux 0,00 min 6,3 C 0,8 C
19.03.2010 10:31 12,8 C 67 % 1017 hPa 0,0 l/m 45,0 km/h (6 Bft) SW67.5 235 15 min 82,0 klux 0,00 min 6,8 C 2,5 C
19.03.2010 10:46 13,0 C 66 % 1017 hPa 0,0 l/m 41,8 km/h (6 Bft) W-SW22.5 250 15 min 69,1 klux 0,00 min 6,8 C 3,1 C
19.03.2010 11:01 13,3 C 65 % 1017 hPa 0,0 l/m 45,2 km/h (6 Bft) W-SW22.5 255 15 min 64,5 klux 0,00 min 6,9 C 3,2 C
19.03.2010 11:15 13,6 C 64 % 1017 hPa 0,0 l/m 39,7 km/h (6 Bft) W-SW45 240 14 min 70,8 klux 0,00 min 6,9 C 4,3 C
19.03.2010 11:31 14,0 C 64 % 1017 hPa 0,0 l/m 52,4 km/h (7 Bft) W-SW45 240 16 min 71,5 klux 0,00 min 7,3 C 3,6 C
19.03.2010 11:46 14,0 C 63 % 1017 hPa 0,0 l/m 49,4 km/h (6 Bft) W-SW45 240 15 min 67,6 klux 0,00 min 7,1 C 3,9 C
19.03.2010 12:01 14,4 C 63 % 1017 hPa 0,0 l/m 44,6 km/h (6 Bft) W-SW45 255 15 min 68,6 klux 0,00 min 7,4 C 4,9 C
19.03.2010 12:16 14,7 C 62 % 1017 hPa 0,0 l/m 40,5 km/h (6 Bft) W-SW22.5 250 15 min 69,9 klux 0,00 min 7,5 C 5,8 C
19.03.2010 12:31 14,8 C 60 % 1017 hPa 0,0 l/m 40,7 km/h (6 Bft) W-SW45 255 15 min 68,6 klux 0,00 min 7,1 C 5,9 C
19.03.2010 12:46 15,0 C 61 % 1017 hPa 0,0 l/m 49,8 km/h (6 Bft) W-SW22.5 250 15 min 69,4 klux 0,00 min 7,5 C 5,4 C
19.03.2010 13:00 15,1 C 59 % 1017 hPa 0,0 l/m 34,4 km/h (5 Bft) SW67.5 230 14 min 72,9 klux 0,00 min 7,1 C 7,2 C
19.03.2010 13:16 14,6 C 59 % 1016 hPa 0,0 l/m 39,6 km/h (6 Bft) W-SW45 250 16 min 77,3 klux 0,00 min 6,7 C 5,8 C
19.03.2010 13:31 14,8 C 59 % 1016 hPa 0,0 l/m 31,3 km/h (5 Bft) SW45 225 15 min 63,8 klux 0,00 min 6,9 C 7,2 C
19.03.2010 13:46 14,6 C 60 % 1016 hPa 0,0 l/m 34,6 km/h (5 Bft) S-SW45 195 0 min 23,7 klux 0,00 min 6,9 C 6,4 C
19.03.2010 14:01 14,6 C 60 % 1016 hPa 0,0 l/m 31,2 km/h (5 Bft) SW45 215 0 min 25,7 klux 0,00 min 6,9 C 6,9 C
19.03.2010 14:16 14,6 C 60 % 1015 hPa 0,0 l/m 26,5 km/h (4 Bft) SW45 225 0 min 25,3 klux 0,00 min 6,9 C 7,8 C
19.03.2010 14:30 15,0 C 59 % 1015 hPa 0,0 l/m 33,6 km/h (5 Bft) S-SW45 195 14 min 67,9 klux 0,00 min 7,1 C 7,1 C
19.03.2010 14:45 15,5 C 59 % 1015 hPa 0,0 l/m 28,8 km/h (4 Bft) SW45 230 15 min 63,2 klux 0,00 min 7,5 C 8,6 C
19.03.2010 15:01 15,6 C 57 % 1015 hPa 0,0 l/m 32,1 km/h (5 Bft) SW67.5 225 16 min 51,2 klux 0,00 min 7,1 C 8,2 C
19.03.2010 15:16 15,7 C 57 % 1015 hPa 0,0 l/m 31,4 km/h (5 Bft) SW45 225 15 min 59,1 klux 0,00 min 7,2 C 8,5 C
19.03.2010 15:31 15,3 C 58 % 1015 hPa 0,0 l/m 35,5 km/h (5 Bft) SW45 230 15 min 47,1 klux 0,00 min 7,1 C 7,3 C
19.03.2010 15:46 15,3 C 58 % 1015 hPa 0,0 l/m 30,6 km/h (5 Bft) SW45 215 15 min 49,2 klux 0,00 min 7,1 C 8,0 C
19.03.2010 16:01 15,2 C 59 % 1015 hPa 0,0 l/m 26,1 km/h (4 Bft) W-SW45 250 0 min 26,5 klux 0,00 min 7,2 C 8,7 C
19.03.2010 16:15 15,3 C 58 % 1015 hPa 0,0 l/m 27,6 km/h (4 Bft) SW45 235 14 min 32,3 klux 0,00 min 7,1 C 8,5 C
19.03.2010 16:31 15,0 C 59 % 1015 hPa 0,0 l/m 23,2 km/h (4 Bft) S-SW45 195 0 min 18,2 klux 0,00 min 7,1 C 9,0 C
19.03.2010 16:46 14,4 C 60 % 1015 hPa 0,0 l/m 31,2 km/h (5 Bft) S-SW22.5 205 0 min 11,8 klux 0,00 min 6,7 C 6,6 C
19.03.2010 17:01 14,1 C 61 % 1015 hPa 0,0 l/m 29,0 km/h (5 Bft) SW45 220 0 min 9,4 klux 0,00 min 6,7 C 6,6 C
19.03.2010 17:16 14,0 C 61 % 1015 hPa 0,0 l/m 21,6 km/h (4 Bft) SW45 215 0 min 9,9 klux 0,00 min 6,6 C 8,0 C
19.03.2010 17:31 13,7 C 62 % 1014 hPa 0,0 l/m 24,1 km/h (4 Bft) SW22.5 220 0 min 8,67 klux 0,00 min 6,6 C 7,0 C
19.03.2010 17:46 13,2 C 63 % 1014 hPa 0,0 l/m 22,0 km/h (4 Bft) SW22.5 220 0 min 6,89 klux 0,00 min 6,3 C 6,9 C
19.03.2010 18:00 12,9 C 64 % 1014 hPa 0,0 l/m 20,2 km/h (4 Bft) SW45 235 0 min 5,26 klux 0,00 min 6,3 C 7,0 C
19.03.2010 18:16 12,5 C 65 % 1014 hPa 0,0 l/m 20,4 km/h (4 Bft) SW45 215 0 min 3,50 klux 0,00 min 6,1 C 6,4 C
19.03.2010 18:31 12,2 C 65 % 1014 hPa 0,0 l/m 13,5 km/h (3 Bft) SW22.5 230 0 min 2,11 klux 0,00 min 5,8 C 8,4 C
19.03.2010 18:46 11,6 C 67 % 1014 hPa 0,0 l/m 13,0 km/h (3 Bft) SW22.5 225 0 min 906 lux 0,00 min 5,7 C 7,9 C
19.03.2010 19:01 11,0 C 68 % 1014 hPa 0,0 l/m 12,6 km/h (3 Bft) SW22.5 215 0 min 252 lux 0,00 min 5,3 C 7,4 C
19.03.2010 19:16 10,5 C 70 % 1014 hPa 0,0 l/m 13,6 km/h (3 Bft) SW22.5 215 0 min 39 lux 0,00 min 5,3 C 6,3 C
19.03.2010 19:30 10,3 C 70 % 1014 hPa 0,0 l/m 14,5 km/h (3 Bft) SW22.5 225 0 min 1 lux 0,00 min 5,1 C 5,7 C
19.03.2010 19:45 10,0 C 71 % 1015 hPa 0,0 l/m 8,9 km/h (2 Bft) S-SW22.5 210 0 min 0 lux 0,00 min 5,0 C 8,3 C
19.03.2010 20:01 9,8 C 72 % 1014 hPa 0,0 l/m 11,0 km/h (2 Bft) SW22.5 230 0 min 0 lux 0,00 min 5,0 C 6,8 C
19.03.2010 20:16 9,9 C 72 % 1014 hPa 0,0 l/m 9,2 km/h (2 Bft) S-SW22.5 205 0 min 0 lux 0,00 min 5,1 C 8,0 C
19.03.2010 20:31 9,9 C 74 % 1014 hPa 0,0 l/m 11,5 km/h (2 Bft) S-SW22.5 205 0 min 0 lux 0,00 min 5,5 C 6,7 C
19.03.2010 20:46 10,4 C 73 % 1014 hPa 0,0 l/m 13,3 km/h (3 Bft) S-SW22.5 210 0 min 0 lux 0,00 min 5,8 C 6,4 C
19.03.2010 21:01 10,5 C 73 % 1014 hPa 0,0 l/m 16,3 km/h (3 Bft) SW22.5 220 0 min 0 lux 0,00 min 5,9 C 5,2 C
19.03.2010 21:15 10,8 C 72 % 1014 hPa 0,0 l/m 12,9 km/h (3 Bft) SW22.5 215 0 min 0 lux 0,00 min 6,0 C 7,0 C
19.03.2010 21:31 10,8 C 72 % 1013 hPa 0,0 l/m 14,1 km/h (3 Bft) S-SW22.5 205 0 min 0 lux 0,00 min 6,0 C 6,5 C
19.03.2010 21:46 10,7 C 71 % 1013 hPa 0,0 l/m 8,3 km/h (2 Bft) S-SW 205 0 min 0 lux 0,00 min 5,7 C 9,4 C
19.03.2010 22:01 10,2 C 73 % 1013 hPa 0,0 l/m 10,1 km/h (2 Bft) S22.5 190 0 min 0 lux 0,00 min 5,6 C 7,8 C
19.03.2010 22:16 10,4 C 73 % 1013 hPa 0,0 l/m 14,5 km/h (3 Bft) SW22.5 220 0 min 0 lux 0,00 min 5,8 C 5,8 C
19.03.2010 22:31 10,5 C 72 % 1013 hPa 0,0 l/m 14,8 km/h (3 Bft) SW22.5 215 0 min 0 lux 0,00 min 5,7 C 5,8 C
19.03.2010 22:46 10,5 C 72 % 1013 hPa 0,0 l/m 16,0 km/h (3 Bft) SW45 215 0 min 0 lux 0,00 min 5,7 C 5,3 C
19.03.2010 23:00 10,6 C 72 % 1013 hPa 0,0 l/m 16,4 km/h (3 Bft) S-SW45 200 0 min 0 lux 0,00 min 5,8 C 5,3 C
19.03.2010 23:16 10,6 C 72 % 1012 hPa 0,0 l/m 13,1 km/h (3 Bft) S45 175 0 min 0 lux 0,00 min 5,8 C 6,7 C
19.03.2010 23:31 10,5 C 72 % 1012 hPa 0,0 l/m 17,8 km/h (3 Bft) S45 190 0 min 0 lux 0,00 min 5,7 C 4,7 C
19.03.2010 23:46 10,6 C 71 % 1012 hPa 0,0 l/m 19,6 km/h (3 Bft) S45 190 0 min 0 lux 0,00 min 5,6 C 4,2 C
19.03.2010 23:55 10,7 C 71 % 1012 hPa 0,0 l/m 19,0 km/h (3 Bft) S22.5 190 0 min 0 lux 0,00 min 5,7 C 4,5 C
_ Min-Zeit 03:01 15:01 23:16 - 21:46 - - - - - 02:46 08:00
Minimum _ 4,7 C 57 % 1012 hPa - 8,3 km/h (2 Bft) - - - - - -1,3 C -4,9 C
_ Max-Zeit 15:16 20:31 01:46 00:01 11:31 - - 11:31 10:31 00:01 12:46 21:46
Maximum _ 15,7 C 74 % 1017 hPa 0,0 l/m 52,4 km/h
W-SW (7 Bft)
- - 16 min 82,0 klux 0,00 min 7,5 C 9,4 C
Durchschnitt _ 10,5 C 66 % 1016 hPa #0,0 l/m 26,0 km/h (4 Bft) SW - #6:43 h 19,3 klux #0 min. 4,3 C 3,2 C